Time;durP1;ratioP1;P1;durP2;ratioP2;P2;SDS_P1;SDS_P2;PMS_P1;PMS_P2;Temp;Humidity;BMP_temperature;BMP_pressure;BME280_temperature;BME280_humidity;BME280_pressure;Samples;Min_cycle;Max_cycle;Signal;HPM_P1;HPM_P2
2022/10/20 00:01:01;;;;;;;1.50;1.10;;;11.90;98.20;;;;;;5060073;28;20461;-77
2022/10/20 00:03:29;;;;;;;1.60;1.10;;;11.90;98.20;;;;;;5076164;28;20493;-77
2022/10/20 00:06:08;;;;;;;1.57;1.00;;;11.90;98.20;;;;;;5058053;28;20556;-77
2022/10/20 00:08:35;;;;;;;1.60;1.20;;;11.90;98.20;;;;;;5064266;28;20501;-77
2022/10/20 00:11:03;;;;;;;1.60;1.10;;;11.90;98.20;;;;;;5042456;28;20516;-77
2022/10/20 00:13:30;;;;;;;1.50;1.00;;;11.90;98.20;;;;;;5059084;28;20561;-77
2022/10/20 00:15:59;;;;;;;1.53;1.00;;;11.90;98.20;;;;;;5051071;28;20516;-77
2022/10/20 00:18:28;;;;;;;1.57;1.10;;;11.90;98.20;;;;;;5079992;28;20485;-77
2022/10/20 00:20:58;;;;;;;1.50;1.10;;;12.00;98.20;;;;;;5057661;28;20465;-77
2022/10/20 00:23:27;;;;;;;1.50;1.03;;;11.90;98.20;;;;;;5068573;28;20867;-76
2022/10/20 00:26:05;;;;;;;1.60;1.20;;;11.90;98.20;;;;;;5061074;28;20465;-77
2022/10/20 00:28:32;;;;;;;1.53;1.10;;;11.90;98.20;;;;;;5070493;28;21001;-75
2022/10/20 00:31:00;;;;;;;1.53;1.10;;;11.90;98.20;;;;;;5057109;28;20476;-77
2022/10/20 00:33:27;;;;;;;1.53;1.10;;;11.90;98.20;;;;;;5069444;28;21383;-77
2022/10/20 00:35:55;;;;;;;1.50;1.00;;;11.90;98.20;;;;;;5049739;28;20474;-77
2022/10/20 00:38:22;;;;;;;1.57;1.10;;;11.90;98.20;;;;;;5050895;28;20486;-77
2022/10/20 00:40:53;;;;;;;1.53;1.10;;;11.90;98.20;;;;;;5057542;28;20928;-77
2022/10/20 00:43:21;;;;;;;2.07;1.87;;;11.90;98.20;;;;;;5068871;28;20573;-77
2022/10/20 00:45:55;;;;;;;1.53;1.10;;;11.90;98.20;;;;;;5056332;28;20981;-76
2022/10/20 00:48:26;;;;;;;1.57;1.13;;;12.00;98.20;;;;;;5057121;28;20862;-77
2022/10/20 00:50:56;;;;;;;1.57;1.00;;;12.00;98.20;;;;;;5053858;28;20492;-77
2022/10/20 00:53:26;;;;;;;1.57;1.10;;;11.90;98.20;;;;;;5059023;28;20478;-77
2022/10/20 00:55:57;;;;;;;1.53;1.00;;;11.90;98.20;;;;;;5023705;28;20472;-78
2022/10/20 00:58:25;;;;;;;1.60;1.10;;;11.90;98.20;;;;;;5049118;28;20485;-77
2022/10/20 01:00:56;;;;;;;1.57;1.10;;;11.90;98.20;;;;;;5042413;28;20473;-77
2022/10/20 01:03:27;;;;;;;1.60;1.20;;;11.90;98.20;;;;;;5071752;28;21044;-76
2022/10/20 01:05:55;;;;;;;1.60;1.07;;;11.80;98.20;;;;;;5057235;28;20616;-77
2022/10/20 01:08:22;;;;;;;1.50;1.00;;;11.80;98.20;;;;;;5066847;28;20548;-77
2022/10/20 01:11:03;;;;;;;1.50;1.00;;;11.80;98.20;;;;;;5057374;28;20787;-78
2022/10/20 01:13:38;;;;;;;2.47;1.40;;;11.80;98.20;;;;;;5056815;28;20486;-77
2022/10/20 01:16:19;;;;;;;1.83;1.73;;;11.80;98.20;;;;;;5052751;28;21007;-78
2022/10/20 01:18:56;;;;;;;1.57;1.00;;;11.80;98.20;;;;;;5065528;28;20496;-79
2022/10/20 01:21:47;;;;;;;1.57;1.10;;;11.80;98.20;;;;;;5058514;28;20520;-77
2022/10/20 01:24:44;;;;;;;1.60;1.20;;;11.80;98.20;;;;;;5054819;28;20962;-78
2022/10/20 01:27:33;;;;;;;1.50;1.10;;;11.80;98.20;;;;;;5043214;28;20478;-77
2022/10/20 01:30:06;;;;;;;1.60;1.10;;;11.80;98.20;;;;;;5065800;28;20553;-78
2022/10/20 01:32:48;;;;;;;1.57;1.10;;;11.80;98.20;;;;;;5050986;28;21079;-78
2022/10/20 01:35:26;;;;;;;1.60;1.10;;;11.80;98.20;;;;;;5059042;28;20461;-78
2022/10/20 01:38:01;;;;;;;1.57;1.10;;;11.80;98.20;;;;;;5066376;28;20895;-78
2022/10/20 01:40:32;;;;;;;1.50;1.00;;;11.80;98.20;;;;;;5062989;28;20469;-79
2022/10/20 01:43:05;;;;;;;1.57;1.10;;;11.80;98.20;;;;;;5053209;28;20481;-77
2022/10/20 01:45:36;;;;;;;1.60;1.10;;;11.80;98.20;;;;;;5047897;28;20533;-78
2022/10/20 01:48:06;;;;;;;1.50;1.10;;;11.80;98.20;;;;;;5047986;28;20564;-78
2022/10/20 01:50:35;;;;;;;1.60;1.10;;;11.80;98.20;;;;;;5048470;28;20468;-78
2022/10/20 01:53:03;;;;;;;1.57;1.10;;;11.80;98.20;;;;;;5044210;28;20657;-78
2022/10/20 01:55:31;;;;;;;1.53;1.10;;;11.80;98.20;;;;;;5069587;28;20527;-77
2022/10/20 01:58:19;;;;;;;1.53;1.10;;;11.80;98.20;;;;;;5054483;28;20563;-77
2022/10/20 02:00:47;;;;;;;1.60;1.10;;;11.80;98.20;;;;;;5069296;28;20892;-78
2022/10/20 02:03:32;;;;;;;1.57;1.20;;;11.80;98.20;;;;;;5047272;28;20477;-78
2022/10/20 02:06:16;;;;;;;1.50;1.00;;;11.80;98.20;;;;;;5058137;28;20520;-77
2022/10/20 02:08:45;;;;;;;1.57;1.10;;;11.80;98.20;;;;;;5066522;28;20466;-79
2022/10/20 02:11:20;;;;;;;1.60;1.20;;;11.80;98.20;;;;;;5058724;28;20477;-78
2022/10/20 02:13:51;;;;;;;2.57;2.37;;;11.80;98.20;;;;;;5068196;28;20961;-78
2022/10/20 02:16:23;;;;;;;1.53;1.10;;;11.80;98.20;;;;;;5060848;28;20473;-79
2022/10/20 02:18:51;;;;;;;1.57;1.10;;;11.80;98.20;;;;;;5057872;28;20565;-77
2022/10/20 02:21:18;;;;;;;1.60;1.20;;;11.80;98.20;;;;;;5040473;28;20897;-77
2022/10/20 02:23:48;;;;;;;1.70;1.20;;;11.80;98.20;;;;;;5059993;28;20481;-78
2022/10/20 02:26:19;;;;;;;1.57;1.10;;;11.70;98.20;;;;;;5043493;28;20465;-78
2022/10/20 02:28:52;;;;;;;1.50;1.10;;;11.80;98.20;;;;;;5073435;28;20461;-79
2022/10/20 02:31:20;;;;;;;1.57;1.10;;;11.80;98.20;;;;;;5058542;28;20675;-78
2022/10/20 02:33:48;;;;;;;1.57;1.20;;;11.80;98.20;;;;;;5067616;28;20465;-80
2022/10/20 02:36:19;;;;;;;1.60;1.10;;;11.80;98.20;;;;;;5046827;28;20488;-79
2022/10/20 02:38:46;;;;;;;1.53;1.10;;;11.80;98.20;;;;;;5084638;28;20496;-78
2022/10/20 02:41:13;;;;;;;1.57;1.10;;;11.80;98.20;;;;;;5054373;28;20482;-77
2022/10/20 02:43:40;;;;;;;1.57;1.10;;;11.80;98.20;;;;;;5066264;28;20552;-79
2022/10/20 02:46:09;;;;;;;1.57;1.03;;;11.80;98.20;;;;;;5055129;28;20488;-77
2022/10/20 02:48:37;;;;;;;1.60;1.10;;;11.80;98.20;;;;;;5068430;28;20491;-76
2022/10/20 02:51:05;;;;;;;1.80;1.50;;;11.80;98.20;;;;;;5050337;28;20536;-76
2022/10/20 02:53:32;;;;;;;1.60;1.10;;;11.80;98.20;;;;;;5070954;28;20489;-77
2022/10/20 02:56:00;;;;;;;1.60;1.10;;;11.80;98.20;;;;;;5062713;28;21271;-76
2022/10/20 02:58:27;;;;;;;1.57;1.00;;;11.80;98.20;;;;;;5071526;28;20493;-78
2022/10/20 03:00:54;;;;;;;1.57;1.10;;;11.80;98.20;;;;;;5064267;28;20470;-77
2022/10/20 03:03:22;;;;;;;1.50;1.10;;;11.80;98.20;;;;;;5071686;28;20544;-77
2022/10/20 03:05:49;;;;;;;1.53;1.10;;;11.80;98.20;;;;;;5063013;28;20503;-77
2022/10/20 03:08:16;;;;;;;1.57;1.10;;;11.80;98.20;;;;;;5071462;28;20481;-77
2022/10/20 03:10:43;;;;;;;1.53;1.10;;;11.80;98.20;;;;;;5059177;28;20465;-77
2022/10/20 03:13:11;;;;;;;1.57;1.10;;;11.80;98.20;;;;;;5055645;28;20485;-78
2022/10/20 03:15:38;;;;;;;1.57;1.10;;;11.80;98.20;;;;;;5058211;28;20480;-76
2022/10/20 03:18:06;;;;;;;1.53;1.07;;;11.80;98.20;;;;;;5073203;28;20584;-78
2022/10/20 03:20:34;;;;;;;1.60;1.10;;;11.80;98.20;;;;;;5058578;28;20458;-77
2022/10/20 03:23:01;;;;;;;1.60;1.20;;;11.80;98.20;;;;;;5062624;28;21057;-77
2022/10/20 03:25:28;;;;;;;1.53;1.10;;;11.90;98.20;;;;;;5060428;28;20516;-77
2022/10/20 03:27:56;;;;;;;1.53;1.10;;;11.90;98.20;;;;;;5069930;28;20473;-77
2022/10/20 03:30:26;;;;;;;1.53;1.10;;;11.90;98.20;;;;;;5058903;28;20476;-77
2022/10/20 03:32:53;;;;;;;1.50;1.03;;;11.90;98.20;;;;;;5055748;28;20581;-78
2022/10/20 03:35:20;;;;;;;1.57;1.10;;;11.90;98.20;;;;;;5064605;28;20458;-77
2022/10/20 03:37:50;;;;;;;1.60;1.20;;;11.90;98.20;;;;;;5072506;28;20488;-77
2022/10/20 03:40:18;;;;;;;1.80;1.30;;;11.90;98.20;;;;;;5059501;28;20533;-78
2022/10/20 03:42:44;;;;;;;1.60;1.20;;;11.90;98.20;;;;;;5052618;28;20481;-79
2022/10/20 03:45:12;;;;;;;1.57;1.10;;;11.90;98.20;;;;;;5059699;28;20508;-78
2022/10/20 03:47:39;;;;;;;1.90;1.30;;;12.00;98.20;;;;;;5064095;28;20473;-78
2022/10/20 03:50:07;;;;;;;1.60;1.10;;;12.00;98.20;;;;;;5051144;28;20560;-77
2022/10/20 03:52:34;;;;;;;1.53;1.10;;;11.90;98.20;;;;;;5067290;28;20576;-78
2022/10/20 03:55:02;;;;;;;1.57;1.00;;;11.90;98.20;;;;;;5072005;28;20465;-79
2022/10/20 03:57:29;;;;;;;1.70;1.57;;;12.00;98.20;;;;;;5052232;28;21017;-77
2022/10/20 03:59:57;;;;;;;1.57;1.10;;;11.90;98.20;;;;;;5066866;28;20486;-77
2022/10/20 04:02:32;;;;;;;1.60;1.30;;;11.90;98.20;;;;;;5063307;28;20542;-77
2022/10/20 04:04:59;;;;;;;1.50;1.03;;;11.90;98.20;;;;;;5055493;28;20470;-77
2022/10/20 04:07:26;;;;;;;1.57;1.10;;;11.90;98.20;;;;;;5064352;28;20508;-78
2022/10/20 04:09:54;;;;;;;1.60;1.00;;;11.90;98.20;;;;;;5055888;28;20461;-77
2022/10/20 04:12:25;;;;;;;1.53;1.10;;;11.90;98.20;;;;;;5050117;28;20489;-79
2022/10/20 04:14:52;;;;;;;1.50;1.00;;;11.90;98.20;;;;;;5068705;28;20904;-79
2022/10/20 04:17:19;;;;;;;1.57;1.10;;;12.00;98.20;;;;;;5056573;28;20970;-78
2022/10/20 04:19:47;;;;;;;3.20;2.90;;;12.00;98.20;;;;;;5048278;28;20583;-78
2022/10/20 04:22:14;;;;;;;1.53;1.00;;;12.00;98.20;;;;;;5047366;28;20496;-80
2022/10/20 04:24:42;;;;;;;1.50;1.07;;;12.00;98.20;;;;;;5065853;28;20491;-77
2022/10/20 04:27:13;;;;;;;1.53;1.03;;;12.00;98.20;;;;;;5053312;28;20499;-78
2022/10/20 04:29:43;;;;;;;1.60;1.10;;;12.00;98.20;;;;;;5066972;28;20541;-79
2022/10/20 04:32:10;;;;;;;1.50;1.00;;;12.00;98.20;;;;;;5057448;28;20513;-77
2022/10/20 04:34:37;;;;;;;1.60;1.30;;;12.00;98.20;;;;;;5052478;28;20455;-78
2022/10/20 04:37:04;;;;;;;1.60;1.10;;;12.00;98.20;;;;;;5053772;28;20516;-78
2022/10/20 04:39:31;;;;;;;1.60;1.20;;;12.00;98.20;;;;;;5075803;28;20584;-78
2022/10/20 15:51:18;;;;;;;1.60;1.10;;;14.70;98.20;;;;;;1486826;26;20977;-77
2022/10/20 15:53:48;;;;;;;1.70;1.50;;;14.70;98.20;;;;;;5097200;28;20490;-77
2022/10/20 15:56:16;;;;;;;1.60;1.00;;;14.70;98.20;;;;;;5084059;28;20478;-77
2022/10/20 15:58:50;;;;;;;1.60;1.00;;;14.70;98.20;;;;;;5083249;28;20475;-77
2022/10/20 16:01:24;;;;;;;1.60;1.30;;;14.60;98.20;;;;;;5071333;28;20911;-76
2022/10/20 16:04:25;;;;;;;1.53;1.03;;;14.60;98.20;;;;;;5070962;28;20468;-76
2022/10/20 16:10:33;;;;;;;1.57;1.00;;;14.60;98.20;;;;;;5063693;28;20476;-77
2022/10/20 16:13:04;;;;;;;1.57;1.00;;;14.50;98.20;;;;;;5067378;28;21097;-78
2022/10/20 16:15:35;;;;;;;1.60;1.10;;;14.50;98.20;;;;;;5084520;28;20747;-78
2022/10/20 16:18:24;;;;;;;1.53;1.00;;;14.50;98.20;;;;;;5067552;28;20563;-77
2022/10/20 16:20:57;;;;;;;1.60;1.10;;;14.50;98.20;;;;;;5075032;28;20571;-78
2022/10/20 16:26:39;;;;;;;1.60;1.00;;;14.40;98.20;;;;;;5069483;28;20545;-78
2022/10/20 16:29:07;;;;;;;1.70;1.40;;;14.40;98.20;;;;;;5086618;28;20471;-77
2022/10/20 16:31:34;;;;;;;1.57;1.00;;;14.40;98.20;;;;;;5072738;28;20476;-79
2022/10/20 16:34:01;;;;;;;1.57;1.00;;;14.30;98.20;;;;;;5084632;28;20465;-77
2022/10/20 16:36:28;;;;;;;1.60;1.23;;;14.30;98.20;;;;;;5075183;28;20900;-77
2022/10/20 16:38:59;;;;;;;1.57;1.00;;;14.30;98.20;;;;;;5087213;28;20537;-77
2022/10/20 16:41:26;;;;;;;1.60;1.10;;;14.20;98.20;;;;;;5074821;28;20480;-77
2022/10/20 16:43:54;;;;;;;1.57;1.00;;;14.30;98.20;;;;;;5082888;28;20499;-78
2022/10/20 16:46:21;;;;;;;1.60;1.07;;;14.20;98.20;;;;;;5078224;28;21224;-76
2022/10/20 16:48:49;;;;;;;1.53;1.00;;;14.20;98.20;;;;;;5086918;28;20468;-78
2022/10/20 16:51:17;;;;;;;1.73;1.63;;;14.20;98.20;;;;;;5078270;28;20618;-79
2022/10/20 16:53:44;;;;;;;1.57;1.00;;;14.20;98.20;;;;;;5082134;28;20465;-79
2022/10/20 16:56:12;;;;;;;1.53;1.00;;;14.20;98.20;;;;;;5076312;28;20485;-79
2022/10/20 16:58:39;;;;;;;1.53;1.00;;;14.20;98.20;;;;;;5082512;28;20472;-78
2022/10/20 17:01:08;;;;;;;1.53;1.00;;;14.20;98.20;;;;;;5076512;28;20916;-78
2022/10/20 17:03:35;;;;;;;2.53;1.73;;;14.20;98.20;;;;;;5078006;28;20490;-78
2022/10/20 17:06:04;;;;;;;1.57;1.00;;;14.20;98.20;;;;;;5074338;28;20510;-78
2022/10/20 17:08:32;;;;;;;2.00;1.33;;;14.10;98.20;;;;;;5083871;28;20471;-79
2022/10/20 17:11:02;;;;;;;1.60;1.00;;;14.10;98.20;;;;;;5075760;28;20904;-80
2022/10/20 17:13:31;;;;;;;1.57;1.00;;;14.10;98.20;;;;;;5080548;28;20603;-80
2022/10/20 17:16:04;;;;;;;1.57;1.00;;;14.10;98.20;;;;;;5077264;28;21008;-79
2022/10/20 17:18:30;;;;;;;2.33;2.03;;;14.10;98.20;;;;;;5084616;28;20575;-79
2022/10/20 17:20:58;;;;;;;1.63;1.27;;;14.10;98.20;;;;;;5075996;28;20488;-78
2022/10/20 17:23:25;;;;;;;1.87;1.67;;;14.10;98.20;;;;;;5085251;28;20475;-77
2022/10/20 17:25:53;;;;;;;1.60;1.10;;;14.10;98.20;;;;;;5073180;28;20542;-78
2022/10/20 17:28:20;;;;;;;1.70;1.30;;;14.10;98.20;;;;;;5080804;28;20456;-78
2022/10/20 17:30:51;;;;;;;1.53;1.00;;;14.10;98.20;;;;;;5084389;28;20522;-78
2022/10/20 17:33:19;;;;;;;1.60;1.10;;;14.00;98.20;;;;;;5081558;28;20495;-78
2022/10/20 17:35:48;;;;;;;1.60;1.00;;;14.00;98.20;;;;;;5084597;28;20505;-80
2022/10/20 17:38:15;;;;;;;1.60;1.00;;;14.00;98.20;;;;;;5056262;28;20481;-76
2022/10/20 17:40:42;;;;;;;1.60;1.00;;;14.10;98.20;;;;;;5085389;28;20484;-77
2022/10/20 17:43:09;;;;;;;1.60;1.00;;;14.00;98.20;;;;;;5068856;28;21038;-78
2022/10/20 17:45:36;;;;;;;1.60;1.10;;;14.10;98.20;;;;;;5087647;28;20480;-78
2022/10/20 17:48:05;;;;;;;1.60;1.00;;;14.10;98.20;;;;;;5077517;28;20523;-77
2022/10/20 17:50:33;;;;;;;1.60;1.30;;;14.10;98.20;;;;;;5086993;28;20468;-78
2022/10/20 17:53:00;;;;;;;1.60;1.10;;;14.10;98.20;;;;;;5069851;28;20554;-78
2022/10/20 17:55:28;;;;;;;1.57;1.00;;;14.10;98.20;;;;;;5088829;28;20487;-78
2022/10/20 17:57:55;;;;;;;1.53;1.00;;;14.10;98.20;;;;;;5071908;28;20489;-77
2022/10/20 18:00:22;;;;;;;1.70;1.40;;;14.10;98.20;;;;;;5091077;28;20523;-78
2022/10/20 18:02:51;;;;;;;1.60;1.00;;;14.10;98.20;;;;;;5077859;28;20504;-76
2022/10/20 18:05:20;;;;;;;1.60;1.10;;;14.10;98.20;;;;;;5090956;28;20541;-78
2022/10/20 18:07:47;;;;;;;2.40;2.20;;;14.10;98.20;;;;;;5072567;28;20791;-78
2022/10/20 18:10:13;;;;;;;1.53;1.00;;;14.10;98.20;;;;;;5093494;28;20465;-79
2022/10/20 18:12:40;;;;;;;1.57;1.00;;;14.10;98.20;;;;;;5073139;28;20872;-76
2022/10/20 18:15:08;;;;;;;1.57;1.00;;;14.10;98.20;;;;;;5093880;28;20472;-78
2022/10/20 18:17:35;;;;;;;1.53;1.00;;;14.10;98.20;;;;;;5075446;28;20485;-81
2022/10/20 18:20:02;;;;;;;1.60;1.13;;;14.10;98.20;;;;;;5089184;28;20468;-82
2022/10/20 18:22:30;;;;;;;1.60;1.10;;;14.10;98.20;;;;;;5084331;28;20549;-81
2022/10/20 18:24:57;;;;;;;1.57;1.03;;;14.10;98.20;;;;;;5096195;28;20488;-77
2022/10/20 18:27:24;;;;;;;1.60;1.10;;;14.20;98.20;;;;;;5079230;28;20468;-79
2022/10/20 18:29:51;;;;;;;1.60;1.10;;;14.20;98.20;;;;;;5090435;28;20468;-78
2022/10/20 18:32:18;;;;;;;1.57;1.00;;;14.20;98.20;;;;;;5074749;28;20504;-78
2022/10/20 18:34:46;;;;;;;1.53;0.97;;;14.20;98.20;;;;;;5084056;28;20499;-79
2022/10/20 18:37:16;;;;;;;1.60;1.10;;;14.20;98.20;;;;;;5074919;28;20523;-77
2022/10/20 18:39:45;;;;;;;1.60;1.00;;;14.20;98.20;;;;;;5085865;28;21056;-80
2022/10/20 18:42:12;;;;;;;1.60;1.30;;;14.20;98.20;;;;;;5069992;28;20481;-83
2022/10/20 18:44:39;;;;;;;1.60;1.00;;;14.20;98.20;;;;;;5082762;28;20492;-80
2022/10/20 18:47:06;;;;;;;1.53;1.00;;;14.20;98.20;;;;;;5064966;28;20487;-78
2022/10/20 18:49:34;;;;;;;2.07;1.70;;;14.20;98.20;;;;;;5071830;28;20769;-78
2022/10/20 18:52:01;;;;;;;1.60;1.03;;;14.20;98.20;;;;;;5068605;28;20480;-79
2022/10/20 18:54:29;;;;;;;1.60;1.20;;;14.20;98.20;;;;;;5076697;28;20635;-80
2022/10/20 18:56:57;;;;;;;1.57;1.00;;;14.20;98.20;;;;;;5063506;28;20485;-78
2022/10/20 18:59:24;;;;;;;1.50;1.00;;;14.20;98.20;;;;;;5072792;28;20560;-79
2022/10/20 19:01:51;;;;;;;1.60;1.10;;;14.20;98.20;;;;;;5067162;28;21097;-81
2022/10/20 19:04:18;;;;;;;1.57;1.03;;;14.20;98.20;;;;;;5074034;28;20563;-80
2022/10/20 19:06:47;;;;;;;1.60;1.10;;;14.20;98.20;;;;;;5065037;28;20840;-80
2022/10/20 19:09:16;;;;;;;1.60;1.00;;;14.10;98.20;;;;;;5071992;28;21082;-79
2022/10/20 19:11:44;;;;;;;1.70;1.30;;;14.10;98.20;;;;;;5070282;28;21060;-78
2022/10/20 19:14:13;;;;;;;1.60;1.10;;;14.10;98.20;;;;;;5078785;28;20500;-79
2022/10/20 19:16:44;;;;;;;4.27;2.13;;;14.20;98.20;;;;;;5064059;28;20480;-79
2022/10/20 19:19:12;;;;;;;1.70;1.40;;;14.20;98.20;;;;;;5078624;28;20460;-79
2022/10/20 19:21:40;;;;;;;1.50;1.00;;;14.20;98.20;;;;;;5065688;28;20489;-79
2022/10/20 19:24:09;;;;;;;1.60;1.10;;;14.20;98.20;;;;;;5071795;28;20460;-83
2022/10/20 19:26:40;;;;;;;1.60;1.00;;;14.20;98.20;;;;;;5066015;28;20500;-81
2022/10/20 19:29:14;;;;;;;1.57;1.00;;;14.20;98.20;;;;;;5072693;28;20480;-81
2022/10/20 19:31:43;;;;;;;1.57;1.00;;;14.20;98.20;;;;;;5066537;28;20729;-78
2022/10/20 19:34:13;;;;;;;1.60;1.10;;;14.20;98.20;;;;;;5073748;28;20473;-78
2022/10/20 19:36:41;;;;;;;1.57;0.90;;;14.20;98.20;;;;;;5065201;28;20503;-80
2022/10/20 19:39:11;;;;;;;1.60;1.10;;;14.20;98.20;;;;;;5062407;28;20496;-77
2022/10/20 19:41:38;;;;;;;1.50;0.90;;;14.20;98.20;;;;;;5065656;28;20855;-78
2022/10/20 19:44:06;;;;;;;1.60;1.10;;;14.20;98.20;;;;;;5072368;28;20464;-79
2022/10/20 19:46:35;;;;;;;1.57;1.00;;;14.20;98.20;;;;;;5065865;28;20643;-79
2022/10/20 19:49:02;;;;;;;1.60;1.10;;;14.20;98.20;;;;;;5070382;28;20464;-80
2022/10/20 19:51:29;;;;;;;2.07;1.87;;;14.20;98.20;;;;;;5070944;28;20489;-78
2022/10/20 19:53:57;;;;;;;1.60;1.00;;;14.20;98.20;;;;;;5082393;28;20555;-78
2022/10/20 19:56:24;;;;;;;1.80;1.43;;;14.20;98.20;;;;;;5069624;28;20607;-80
2022/10/20 19:58:51;;;;;;;1.70;1.30;;;14.20;98.20;;;;;;5069488;28;20514;-80
2022/10/20 20:01:18;;;;;;;1.57;1.00;;;14.20;98.20;;;;;;5067862;28;20476;-82
2022/10/20 20:03:47;;;;;;;1.57;1.00;;;14.20;98.20;;;;;;5070762;28;20500;-80
2022/10/20 20:06:17;;;;;;;1.60;1.17;;;14.20;98.20;;;;;;5070041;28;20476;-81
2022/10/20 20:08:45;;;;;;;1.70;1.10;;;14.20;98.20;;;;;;5066239;28;20483;-80
2022/10/20 20:11:22;;;;;;;1.60;1.10;;;14.20;98.20;;;;;;5066555;28;21613;-78
2022/10/20 20:13:50;;;;;;;1.57;0.90;;;14.20;98.20;;;;;;5071671;28;20468;-81
2022/10/20 20:16:17;;;;;;;1.60;1.00;;;14.20;98.20;;;;;;5063328;28;20568;-77
2022/10/20 20:18:44;;;;;;;1.60;1.10;;;14.20;98.20;;;;;;5061486;28;20460;-78
2022/10/20 20:21:13;;;;;;;1.60;1.00;;;14.20;98.20;;;;;;5069069;28;20834;-78
2022/10/20 20:23:40;;;;;;;2.17;1.63;;;14.20;98.20;;;;;;5069369;28;20829;-78
2022/10/20 20:26:08;;;;;;;1.57;1.00;;;14.10;98.20;;;;;;5069779;28;20487;-78
2022/10/20 20:28:36;;;;;;;1.57;1.00;;;14.20;98.20;;;;;;5069399;28;20500;-78
2022/10/20 20:31:06;;;;;;;1.60;1.00;;;14.10;98.20;;;;;;5069721;28;21117;-77
2022/10/20 20:33:34;;;;;;;1.93;1.57;;;14.10;98.20;;;;;;5066624;28;21123;-77
2022/10/20 20:36:04;;;;;;;1.80;1.37;;;14.10;98.20;;;;;;5071144;28;20488;-79
2022/10/20 20:38:34;;;;;;;1.60;1.10;;;14.10;98.20;;;;;;5067339;28;20842;-78
2022/10/20 20:41:02;;;;;;;1.60;1.00;;;14.10;98.20;;;;;;5069807;28;20464;-78
2022/10/20 20:43:29;;;;;;;1.57;1.00;;;14.10;98.20;;;;;;5075687;28;20847;-79
2022/10/20 20:46:02;;;;;;;1.60;1.20;;;14.10;98.20;;;;;;5069495;28;20475;-78
2022/10/20 20:48:28;;;;;;;1.60;1.10;;;14.10;98.20;;;;;;5080260;28;20496;-79
2022/10/20 20:50:57;;;;;;;1.53;1.00;;;14.10;98.20;;;;;;5077692;28;20464;-76
2022/10/20 20:53:24;;;;;;;1.60;1.07;;;14.10;98.20;;;;;;5069882;28;20465;-77
2022/10/20 20:55:56;;;;;;;1.57;1.00;;;14.10;98.20;;;;;;5060760;28;20554;-78
2022/10/20 20:58:23;;;;;;;1.60;1.10;;;14.10;98.20;;;;;;5071423;28;20457;-77
2022/10/20 21:00:51;;;;;;;1.57;1.00;;;14.10;98.20;;;;;;5062478;28;20464;-78
2022/10/20 21:03:19;;;;;;;1.50;1.00;;;14.10;98.20;;;;;;5069805;28;20871;-77
2022/10/20 21:05:46;;;;;;;1.57;1.00;;;14.10;98.20;;;;;;5070103;28;20884;-78
2022/10/20 21:08:13;;;;;;;1.60;1.10;;;14.10;98.20;;;;;;5062154;28;20564;-78
2022/10/20 21:10:40;;;;;;;1.57;1.00;;;14.10;98.20;;;;;;5090521;28;20469;-76
2022/10/20 21:13:08;;;;;;;1.80;1.20;;;14.10;98.20;;;;;;5064721;28;20501;-76
2022/10/20 21:15:35;;;;;;;1.57;1.00;;;14.20;98.20;;;;;;5082903;28;20482;-76
2022/10/20 21:18:02;;;;;;;1.60;1.10;;;14.20;98.20;;;;;;5068606;28;20504;-77
2022/10/20 21:20:29;;;;;;;1.53;1.00;;;14.20;98.20;;;;;;5081429;28;20674;-77
2022/10/20 21:22:56;;;;;;;1.60;1.10;;;14.20;98.20;;;;;;5066829;28;20495;-77
2022/10/20 21:25:23;;;;;;;1.53;1.00;;;14.30;98.20;;;;;;5079571;28;20584;-76
2022/10/20 21:27:51;;;;;;;1.50;1.00;;;14.30;98.20;;;;;;5077778;28;20484;-76
2022/10/20 21:30:19;;;;;;;1.57;1.10;;;14.30;98.20;;;;;;5090068;28;20467;-77
2022/10/20 21:32:46;;;;;;;1.60;1.00;;;14.40;98.20;;;;;;5062496;28;20493;-78
2022/10/20 21:35:13;;;;;;;1.60;1.00;;;14.40;98.20;;;;;;5087608;28;20512;-79
2022/10/20 21:37:40;;;;;;;2.03;1.83;;;14.40;98.20;;;;;;5073944;28;20490;-78
2022/10/20 21:40:08;;;;;;;2.33;2.13;;;14.40;98.20;;;;;;5074292;28;20907;-80
2022/10/20 21:42:35;;;;;;;1.60;1.20;;;14.50;98.20;;;;;;5067612;28;20477;-78
2022/10/20 21:45:01;;;;;;;1.60;1.03;;;14.50;98.20;;;;;;5088307;28;20476;-78
2022/10/20 21:47:30;;;;;;;1.53;1.00;;;14.50;98.20;;;;;;5064618;28;20513;-76
2022/10/20 21:49:57;;;;;;;1.57;1.00;;;14.50;98.20;;;;;;5069088;28;20540;-78
2022/10/20 21:52:24;;;;;;;1.60;1.00;;;14.50;98.20;;;;;;5070278;28;20476;-77
2022/10/20 21:54:51;;;;;;;1.60;1.10;;;14.60;98.20;;;;;;5090296;28;20555;-76
2022/10/20 21:57:18;;;;;;;1.60;1.20;;;14.60;98.20;;;;;;5066357;28;20473;-77
2022/10/20 21:59:49;;;;;;;1.60;1.00;;;14.60;98.20;;;;;;5069631;28;20842;-77
2022/10/20 22:02:16;;;;;;;1.57;0.93;;;14.60;98.20;;;;;;5069880;28;20480;-81
2022/10/20 22:04:44;;;;;;;1.57;1.00;;;14.70;98.20;;;;;;5089657;28;20564;-77
2022/10/20 22:07:11;;;;;;;2.03;1.83;;;14.70;98.20;;;;;;5067684;28;20644;-78
2022/10/20 22:09:38;;;;;;;1.57;1.00;;;14.70;98.20;;;;;;5068847;28;20458;-78
2022/10/20 22:12:05;;;;;;;1.57;1.00;;;14.70;98.20;;;;;;5068254;28;20510;-77
2022/10/20 22:14:32;;;;;;;1.60;1.00;;;14.70;98.20;;;;;;5075886;28;20882;-76
2022/10/20 22:16:59;;;;;;;1.60;1.20;;;14.70;98.20;;;;;;5067077;28;20589;-78
2022/10/20 22:19:26;;;;;;;1.57;1.00;;;14.70;98.20;;;;;;5088705;28;20468;-76
2022/10/20 22:21:55;;;;;;;1.70;1.37;;;14.70;98.20;;;;;;5069435;28;20532;-75
2022/10/20 22:24:23;;;;;;;1.60;1.00;;;14.70;98.20;;;;;;5068758;28;20467;-77
2022/10/20 22:26:51;;;;;;;1.53;1.00;;;14.70;98.20;;;;;;5065334;28;20476;-75
2022/10/20 22:29:19;;;;;;;1.60;1.00;;;14.80;98.20;;;;;;5088837;28;20470;-75
2022/10/20 22:31:46;;;;;;;1.60;1.00;;;14.80;98.20;;;;;;5076243;28;20477;-75
2022/10/20 22:34:14;;;;;;;1.53;1.00;;;14.80;98.20;;;;;;5077821;28;20449;-76
2022/10/20 22:36:43;;;;;;;5.20;3.17;;;14.80;98.20;;;;;;5065466;28;20529;-79
2022/10/20 22:39:11;;;;;;;1.60;1.10;;;14.80;98.20;;;;;;5089408;28;20492;-78
2022/10/20 22:41:38;;;;;;;1.60;1.10;;;14.80;98.20;;;;;;5069049;28;20484;-77
2022/10/20 22:44:06;;;;;;;1.60;1.00;;;14.80;98.20;;;;;;5075385;28;20453;-76
2022/10/20 22:46:33;;;;;;;1.70;1.40;;;14.80;98.20;;;;;;5062625;28;20561;-77
2022/10/20 22:49:00;;;;;;;1.60;1.00;;;14.80;98.20;;;;;;5088086;28;20517;-78
2022/10/20 22:51:28;;;;;;;2.20;1.67;;;14.80;98.20;;;;;;5073355;28;20568;-78
2022/10/20 22:53:55;;;;;;;1.53;1.00;;;14.80;98.20;;;;;;5068241;28;20462;-77
2022/10/20 22:56:23;;;;;;;1.60;1.10;;;14.80;98.20;;;;;;5067671;28;20840;-77
2022/10/20 22:58:52;;;;;;;1.53;1.00;;;14.80;98.20;;;;;;5085986;28;20457;-77
2022/10/20 23:01:21;;;;;;;1.60;1.10;;;14.80;98.20;;;;;;5059502;28;20482;-78
2022/10/20 23:03:48;;;;;;;1.60;1.00;;;14.70;98.20;;;;;;5068101;28;20493;-77
2022/10/20 23:06:17;;;;;;;1.60;1.00;;;14.70;98.20;;;;;;5062379;28;20480;-79
2022/10/20 23:08:47;;;;;;;1.53;1.00;;;14.70;98.20;;;;;;5089565;28;21022;-77
2022/10/20 23:11:15;;;;;;;1.53;1.00;;;14.70;98.20;;;;;;5074291;28;20481;-76
2022/10/20 23:13:43;;;;;;;1.60;1.10;;;14.70;98.20;;;;;;5078643;28;20927;-80
2022/10/20 23:16:10;;;;;;;1.60;1.20;;;14.70;98.20;;;;;;5075658;28;20500;-77
2022/10/20 23:18:38;;;;;;;1.60;1.00;;;14.70;98.20;;;;;;5068588;28;20468;-76
2022/10/20 23:21:06;;;;;;;1.60;1.00;;;14.70;98.20;;;;;;5059589;28;20461;-77
2022/10/20 23:23:36;;;;;;;1.60;1.20;;;14.70;98.20;;;;;;5089239;28;20533;-76
2022/10/20 23:26:03;;;;;;;1.57;1.00;;;14.70;98.20;;;;;;5075545;28;20492;-78
2022/10/20 23:28:29;;;;;;;1.57;0.90;;;14.70;98.20;;;;;;5067897;28;20990;-77
2022/10/20 23:31:06;;;;;;;1.80;1.57;;;14.70;98.20;;;;;;5058205;28;20465;-79
2022/10/20 23:33:33;;;;;;;1.53;1.00;;;14.70;98.20;;;;;;5087669;28;20509;-77
2022/10/20 23:36:00;;;;;;;1.57;1.00;;;14.70;98.20;;;;;;5076348;28;20482;-80
2022/10/20 23:38:27;;;;;;;1.60;1.20;;;14.70;98.20;;;;;;5067265;28;20461;-78
2022/10/20 23:40:54;;;;;;;1.60;1.00;;;14.70;98.20;;;;;;5063242;28;20500;-76
2022/10/20 23:43:21;;;;;;;1.60;1.10;;;14.70;98.20;;;;;;5075140;28;20936;-77
2022/10/20 23:45:48;;;;;;;1.60;1.03;;;14.70;98.20;;;;;;5074492;28;20488;-77
2022/10/20 23:48:16;;;;;;;1.60;1.00;;;14.80;98.20;;;;;;5086336;28;20464;-77
2022/10/20 23:50:44;;;;;;;1.60;1.10;;;14.80;98.20;;;;;;5088429;28;20465;-77
2022/10/20 23:53:11;;;;;;;2.37;1.20;;;14.80;98.20;;;;;;5057581;28;20497;-77
2022/10/20 23:55:38;;;;;;;1.53;1.00;;;14.80;98.20;;;;;;5068611;28;20543;-77
2022/10/20 23:58:05;;;;;;;1.60;1.00;;;14.80;98.20;;;;;;5075314;28;20515;-78
